aviador You're here:

EYKA Decoded Metar

KAUNAS in LITHUANIA
Report Time2018-05-21 17:50:00
UTC Time2018-05-21 18:13:56
Flight Rules vfr VFR
Wind080° at 04 kt
W.Decomp.*RWY 08: 4.0 kt HW 0.4 kt LCW
W.Rank080° ranks 10
Current wind is below 080° avg. (5.3)
Visibility9999 m
Phenomena:N/A
Clouds:N/A
Expected CloudBase > 5,600 ft AGL from Temp-Dew spread
CeilingNone
Temp18°C (ISA +4)
Dew Point04°C (40% RH)
AAT15.3°C
QNH1023 hPa
Density Alt443 ft
Elevation253 ft
Report Wrong Elevation
Raw Report
EYKA 211750Z 08004KT CAVOK 18/04 Q1023=

Extra information for EYKA:More info

Metar Taf Metar & Taf Last 4 Metars F.Rules Stats Wind Profile Meteogram Temp Stats Airport Information Weather charts Add Link Nearby VenuesMetar ALERT Operation Metar Decoded Social comments